UKOO/ODS METAR and TAF weather

Enter ICAO airport designator
Station Type Date Time Source
UKOO METAR 2022/02/25 08:00 UTC NOAA

UKOO 250800Z 36003MPS CAVOK 05/M01 Q1018 NOSIG


Station Type Date Time Source
UKOO Decoded METAR 2022/02/25 08:00 UTC NOAA

Odesa, Ukraine (UKOO) 46-26N 030-46E 42M
Feb 25, 2022 - 03:00 AM EST / 2022.02.25 0800 UTC
Wind: from the N (360 degrees) at 7 MPH (6 KT):0
Visibility: greater than 7 mile(s):0
Temperature: 41 F (5 C)
Dew Point: 30 F (-1 C)
Relative Humidity: 65%
Pressure (altimeter): 30.06 in. Hg (1018 hPa)
ob: UKOO 250800Z 36003MPS CAVOK 05/M01 Q1018 NOSIG
cycle: 8

Station Type Date Time Source
UKOO TAF 2022/02/24 18:27 UTC NOAA

TAF TAF UKOO 241701Z 2418/2518 01005MPS 2500 BR BKN007 TX09/2512Z TN00/2503Z PROB40
TEMPO 2420/2506 0300 FG VV002
BECMG 2506/2507 6000 NSW BKN010

Example: see airport list